Time;durP1;ratioP1;P1;durP2;ratioP2;P2;SDS_P1;SDS_P2;PMS_P1;PMS_P2;Temp;Humidity;BMP_temperature;BMP_pressure;BME280_temperature;BME280_humidity;BME280_pressure;Samples;Min_cycle;Max_cycle;Signal;HPM_P1;HPM_P2
2023/09/29 00:00:27;;;;;;;8.85;4.50;;;;;;;15.15;71.09;100239.13;5009155;28;20140;-41
2023/09/29 00:02:55;;;;;;;6.63;4.03;;;;;;;15.06;71.21;100229.94;5006771;28;20049;-42
2023/09/29 00:05:21;;;;;;;10.50;4.18;;;;;;;15.29;71.33;100268.19;5006967;28;20425;-42
2023/09/29 00:07:48;;;;;;;7.18;4.32;;;;;;;15.27;71.56;100267.41;5004274;28;20052;-40
2023/09/29 00:10:20;;;;;;;9.07;4.60;;;;;;;15.25;71.48;100269.25;5008187;28;20034;-42
2023/09/29 00:12:48;;;;;;;9.05;5.32;;;;;;;15.23;71.26;100271.06;5005117;28;20136;-41
2023/09/29 00:15:15;;;;;;;12.40;4.40;;;;;;;15.21;71.42;100265.06;5008990;28;20054;-41
2023/09/29 00:17:41;;;;;;;8.73;4.47;;;;;;;15.20;71.51;100268.59;5005160;28;20037;-43
2023/09/29 00:20:26;;;;;;;8.40;4.88;;;;;;;15.16;71.63;100267.91;5014910;28;20048;-48
2023/09/29 00:22:53;;;;;;;7.18;4.68;;;;;;;14.77;71.89;100218.09;5017194;28;20835;-43
2023/09/29 00:25:19;;;;;;;8.70;4.80;;;;;;;15.10;72.21;100277.78;5006627;28;20073;-41
2023/09/29 00:27:45;;;;;;;10.20;5.13;;;;;;;14.67;72.52;100216.78;4973206;28;20150;-42
2023/09/29 00:30:12;;;;;;;10.88;5.30;;;;;;;14.84;72.22;100250.94;4992309;28;20030;-41
2023/09/29 00:32:49;;;;;;;24.98;5.63;;;;;;;14.97;72.92;100282.69;5023180;28;20038;-42
2023/09/29 00:35:27;;;;;;;10.05;4.60;;;;;;;14.96;72.66;100291.47;5006081;28;20128;-41
2023/09/29 00:37:54;;;;;;;7.63;4.32;;;;;;;14.93;73.17;100280.25;5008528;28;20055;-41
2023/09/29 00:40:21;;;;;;;8.70;4.78;;;;;;;14.89;73.05;100283.94;5007165;28;20095;-41
2023/09/29 00:42:48;;;;;;;9.65;4.75;;;;;;;14.88;73.33;100280.47;5007306;28;20133;-41
2023/09/29 00:45:25;;;;;;;11.35;4.53;;;;;;;14.86;73.51;100268.38;4998302;28;20050;-41
2023/09/29 00:47:57;;;;;;;9.88;4.40;;;;;;;14.86;73.45;100276.22;5003930;28;20071;-42
2023/09/29 00:50:28;;;;;;;11.75;5.10;;;;;;;14.83;73.50;100271.94;4995433;28;20038;-42
2023/09/29 00:53:05;;;;;;;10.45;4.32;;;;;;;14.84;73.64;100271.91;5007218;28;20100;-41
2023/09/29 00:55:31;;;;;;;10.10;4.90;;;;;;;14.82;73.84;100272.88;5023603;28;20137;-41
2023/09/29 00:57:58;;;;;;;8.23;4.90;;;;;;;14.81;73.85;100277.25;5023229;28;20595;-42
2023/09/29 01:02:53;;;;;;;10.48;5.25;;;;;;;14.75;74.01;100272.28;5008418;28;20037;-41
2023/09/29 01:05:20;;;;;;;8.40;5.22;;;;;;;14.73;74.27;100276.72;5007947;28;20132;-41
2023/09/29 01:07:47;;;;;;;9.32;4.68;;;;;;;14.71;74.28;100267.22;5006467;28;20092;-41
2023/09/29 01:10:15;;;;;;;7.43;4.60;;;;;;;14.71;74.59;100270.69;4982524;28;20422;-40
2023/09/29 01:12:41;;;;;;;8.63;4.80;;;;;;;14.69;74.59;100264.69;4971268;28;20034;-41
2023/09/29 01:15:12;;;;;;;9.55;4.47;;;;;;;14.66;74.27;100271.78;4993732;28;20069;-42
2023/09/29 01:17:41;;;;;;;9.95;4.78;;;;;;;14.68;74.51;100280.44;5023650;28;20069;-42
2023/09/29 01:20:16;;;;;;;9.65;5.45;;;;;;;14.53;74.88;100254.91;5010805;28;20545;-41
2023/09/29 01:22:46;;;;;;;10.48;4.55;;;;;;;14.64;74.86;100276.25;5017835;28;20076;-41
2023/09/29 01:25:14;;;;;;;11.43;4.80;;;;;;;14.63;75.04;100280.66;5047057;28;20140;-41
2023/09/29 01:27:40;;;;;;;8.63;4.28;;;;;;;14.63;75.20;100277.19;5031315;28;20057;-42
2023/09/29 01:30:07;;;;;;;10.98;4.57;;;;;;;14.61;75.21;100268.53;4996135;28;20038;-42
2023/09/29 01:32:33;;;;;;;8.10;4.30;;;;;;;14.62;74.87;100278.94;5012629;28;20100;-42
2023/09/29 01:35:00;;;;;;;11.15;5.18;;;;;;;14.62;75.13;100281.56;4994273;28;20045;-41
2023/09/29 01:37:29;;;;;;;14.95;4.93;;;;;;;14.59;75.44;100279.06;5009499;28;20049;-41
2023/09/29 01:39:55;;;;;;;9.75;4.93;;;;;;;14.60;75.47;100286.00;5011742;28;20643;-42
2023/09/29 01:42:21;;;;;;;13.93;5.70;;;;;;;14.44;75.74;100258.78;5026806;28;20119;-42
2023/09/29 01:44:48;;;;;;;9.88;5.03;;;;;;;14.57;75.71;100278.28;5009646;28;20509;-41
2023/09/29 01:47:14;;;;;;;10.30;5.00;;;;;;;14.30;75.96;100238.34;5010325;28;20108;-40
2023/09/29 01:49:40;;;;;;;7.88;4.80;;;;;;;14.54;75.95;100278.41;4994606;28;20049;-45
2023/09/29 01:52:07;;;;;;;12.20;5.22;;;;;;;14.52;76.21;100276.75;5026214;28;20046;-41
2023/09/29 01:54:33;;;;;;;15.48;5.32;;;;;;;14.49;76.15;100277.75;5011491;28;20127;-41
2023/09/29 01:57:01;;;;;;;10.07;5.10;;;;;;;14.47;76.33;100278.72;5026363;28;20092;-42
2023/09/29 01:59:30;;;;;;;8.18;4.93;;;;;;;14.45;76.19;100270.91;4996366;28;20542;-40
2023/09/29 02:01:56;;;;;;;10.25;5.35;;;;;;;14.29;76.31;100243.63;4992924;28;20402;-41
2023/09/29 02:04:22;;;;;;;9.65;4.70;;;;;;;14.43;76.53;100271.91;5026239;28;20048;-41
2023/09/29 02:06:50;;;;;;;13.00;5.10;;;;;;;14.40;76.69;100271.09;5000017;28;20042;-43
2023/09/29 02:09:16;;;;;;;11.88;5.10;;;;;;;14.42;76.63;100271.06;4991579;28;20046;-41
2023/09/29 02:11:45;;;;;;;9.95;4.78;;;;;;;14.40;76.68;100276.34;4992301;28;20038;-41
2023/09/29 02:14:12;;;;;;;7.47;4.80;;;;;;;14.36;76.77;100272.16;5007069;28;20069;-41
2023/09/29 02:16:51;;;;;;;11.05;5.22;;;;;;;14.28;76.85;100252.44;4999435;28;20044;-40
2023/09/29 02:19:17;;;;;;;6.32;4.25;;;;;;;14.09;76.91;100225.28;5008180;28;20177;-40
2023/09/29 02:21:44;;;;;;;10.30;4.82;;;;;;;14.34;77.09;100262.66;5009138;28;20038;-40
2023/09/29 02:24:30;;;;;;;10.68;5.32;;;;;;;14.22;77.18;100250.06;4990503;28;20085;-41
2023/09/29 02:26:56;;;;;;;12.00;5.30;;;;;;;14.36;77.36;100279.13;4993138;28;20038;-41
2023/09/29 02:29:23;;;;;;;11.40;5.03;;;;;;;14.28;77.73;100266.38;5006973;28;20568;-42
2023/09/29 02:31:49;;;;;;;9.25;4.97;;;;;;;14.30;77.61;100276.75;5008661;28;20049;-43
2023/09/29 02:34:15;;;;;;;9.88;5.40;;;;;;;14.29;77.65;100281.13;5025906;28;20466;-41
2023/09/29 02:36:41;;;;;;;8.25;4.75;;;;;;;14.15;77.71;100253.81;5007116;28;20046;-41
2023/09/29 02:39:08;;;;;;;9.35;5.40;;;;;;;14.25;77.84;100269.09;4993178;28;20053;-41
2023/09/29 02:41:36;;;;;;;10.18;5.57;;;;;;;14.28;78.11;100273.34;5024313;28;20141;-41
2023/09/29 02:44:02;;;;;;;11.57;5.45;;;;;;;14.14;77.91;100258.19;5010375;28;20046;-44
2023/09/29 02:46:27;;;;;;;15.85;5.38;;;;;;;14.25;78.08;100276.94;5008832;28;20034;-41
2023/09/29 02:48:53;;;;;;;11.68;6.20;;;;;;;14.23;78.37;100276.16;5010293;28;20044;-41
2023/09/29 02:51:19;;;;;;;13.90;6.25;;;;;;;14.06;78.42;100249.81;5010242;28;20030;-41
2023/09/29 02:53:50;;;;;;;13.43;6.20;;;;;;;14.20;78.62;100281.50;4989409;28;20100;-40
2023/09/29 02:56:16;;;;;;;15.80;7.13;;;;;;;14.17;78.84;100279.00;5022826;28;20401;-41
2023/09/29 02:58:44;;;;;;;16.55;6.97;;;;;;;14.10;78.96;100282.75;5008146;28;20132;-42
2023/09/29 03:01:16;;;;;;;16.38;7.43;;;;;;;14.09;79.03;100282.81;5007570;28;20042;-42
2023/09/29 03:03:46;;;;;;;17.85;7.18;;;;;;;14.12;79.13;100277.47;5010086;28;20049;-40
2023/09/29 03:06:23;;;;;;;14.32;7.15;;;;;;;14.08;79.32;100281.16;5008785;28;20038;-43
2023/09/29 03:08:54;;;;;;;14.10;7.07;;;;;;;14.02;79.43;100282.22;5009655;28;20049;-43
2023/09/29 03:11:21;;;;;;;17.77;8.27;;;;;;;13.99;79.42;100284.94;5007276;28;20037;-41
2023/09/29 03:13:47;;;;;;;13.30;6.93;;;;;;;14.00;79.75;100289.25;4990461;28;20046;-42
2023/09/29 03:16:13;;;;;;;12.13;6.97;;;;;;;14.02;79.46;100276.16;5009719;28;20124;-41
2023/09/29 03:18:40;;;;;;;14.93;6.32;;;;;;;13.98;79.99;100278.84;5008670;28;20041;-42
2023/09/29 03:21:09;;;;;;;19.67;8.63;;;;;;;13.98;79.99;100288.47;5007047;28;20497;-41
2023/09/29 03:23:38;;;;;;;15.23;6.82;;;;;;;13.99;80.04;100290.16;5007055;28;20418;-43
2023/09/29 03:26:04;;;;;;;17.02;6.75;;;;;;;13.97;80.22;100284.16;5022937;28;20041;-42
2023/09/29 03:28:34;;;;;;;17.08;6.15;;;;;;;13.98;79.98;100286.69;5008239;28;20038;-42
2023/09/29 03:31:04;;;;;;;14.85;6.80;;;;;;;14.02;80.14;100287.47;5007744;28;20030;-42
2023/09/29 03:33:30;;;;;;;13.50;7.78;;;;;;;14.01;80.24;100280.53;5007869;28;20046;-41
2023/09/29 03:35:56;;;;;;;17.58;7.20;;;;;;;14.00;80.23;100278.81;5009531;28;20072;-41
2023/09/29 03:38:25;;;;;;;15.98;7.43;;;;;;;13.99;80.44;100280.56;5007365;28;20136;-41
2023/09/29 03:40:52;;;;;;;13.03;6.80;;;;;;;13.76;80.46;100241.41;5007419;28;20050;-41
2023/09/29 03:43:20;;;;;;;11.57;5.93;;;;;;;13.77;80.72;100250.94;5006764;28;20037;-41
2023/09/29 03:45:46;;;;;;;16.35;6.43;;;;;;;13.89;80.95;100274.00;5008018;28;20041;-41
2023/09/29 03:48:15;;;;;;;19.92;6.70;;;;;;;13.89;81.08;100268.75;5009257;28;20030;-41
2023/09/29 03:50:42;;;;;;;12.63;6.07;;;;;;;13.88;80.98;100269.66;5009017;28;20076;-41
2023/09/29 03:53:08;;;;;;;12.40;6.13;;;;;;;13.89;80.96;100279.22;4997077;28;20049;-42
2023/09/29 03:55:34;;;;;;;12.65;6.10;;;;;;;13.86;81.08;100268.91;5007028;28;20053;-42
2023/09/29 03:58:00;;;;;;;14.20;5.90;;;;;;;13.78;81.65;100257.88;5008809;28;20038;-41
2023/09/29 04:00:26;;;;;;;15.32;6.55;;;;;;;13.46;81.67;100217.28;5007056;28;20046;-42
2023/09/29 04:02:53;;;;;;;16.80;6.88;;;;;;;13.80;81.64;100257.81;5007998;28;20425;-40
2023/09/29 04:05:19;;;;;;;14.35;6.90;;;;;;;13.64;81.98;100241.88;5023678;28;20787;-42
2023/09/29 04:07:45;;;;;;;15.18;7.35;;;;;;;13.78;82.20;100267.47;5007311;28;20103;-44
2023/09/29 04:10:13;;;;;;;16.90;7.20;;;;;;;13.86;82.12;100270.66;5022332;28;20476;-42
2023/09/29 04:12:41;;;;;;;16.20;6.90;;;;;;;13.71;82.12;100240.72;5006721;28;20058;-42
2023/09/29 04:15:07;;;;;;;18.88;7.30;;;;;;;13.89;82.25;100276.59;5015544;28;20087;-41
2023/09/29 04:17:36;;;;;;;18.95;8.20;;;;;;;13.94;81.90;100269.44;5028616;28;20053;-42
2023/09/29 04:20:03;;;;;;;20.73;7.32;;;;;;;13.97;82.09;100274.53;5017493;28;20510;-41
2023/09/29 04:22:32;;;;;;;;;;;;;;;14.01;81.78;100272.69;5006224;28;20046;-41
2023/09/29 04:24:58;;;;;;;19.02;7.47;;;;;;;13.89;81.97;100258.31;5022906;28;20460;-42
2023/09/29 04:27:24;;;;;;;16.33;6.95;;;;;;;14.13;81.45;100266.13;4980674;28;20076;-41
2023/09/29 04:29:51;;;;;;;23.00;6.93;;;;;;;14.15;81.15;100264.28;5014501;28;20128;-41
2023/09/29 04:32:17;;;;;;;17.15;6.90;;;;;;;14.29;80.98;100265.44;5001204;28;20052;-42
2023/09/29 04:34:44;;;;;;;16.80;6.72;;;;;;;14.25;80.67;100256.00;5003072;28;20049;-41
2023/09/29 04:37:11;;;;;;;15.40;5.88;;;;;;;14.36;80.60;100269.53;4991789;28;20050;-42
2023/09/29 04:39:37;;;;;;;16.25;6.55;;;;;;;14.38;80.51;100267.72;5020707;28;20049;-43
2023/09/29 04:42:04;;;;;;;18.50;6.78;;;;;;;14.25;79.58;100229.00;5008428;28;20431;-40
2023/09/29 04:44:33;;;;;;;14.45;6.82;;;;;;;14.61;79.77;100265.91;4974411;28;20033;-41
2023/09/29 04:47:00;;;;;;;13.77;6.75;;;;;;;14.35;79.13;100212.00;5000881;28;20049;-42
2023/09/29 04:49:26;;;;;;;17.23;6.43;;;;;;;14.60;79.08;100235.44;4977746;28;20178;-42
2023/09/29 04:51:52;;;;;;;14.07;6.10;;;;;;;14.77;78.27;100259.13;5006728;28;20134;-42
2023/09/29 04:54:18;;;;;;;14.20;6.82;;;;;;;14.69;77.84;100230.66;4996632;28;20133;-43
2023/09/29 04:56:45;;;;;;;14.18;6.93;;;;;;;14.91;77.59;100261.16;4991661;28;20046;-40
2023/09/29 04:59:11;;;;;;;14.20;6.78;;;;;;;14.88;77.38;100266.50;5007904;28;20498;-42
2023/09/29 05:01:37;;;;;;;15.45;6.55;;;;;;;14.76;77.12;100236.47;5022733;28;20048;-42
2023/09/29 05:04:04;;;;;;;15.82;6.80;;;;;;;15.04;77.00;100259.72;5008015;28;20509;-42
2023/09/29 05:06:29;;;;;;;14.82;6.47;;;;;;;15.03;76.67;100266.72;4984662;28;20048;-42
2023/09/29 05:08:56;;;;;;;16.08;7.15;;;;;;;15.15;76.37;100254.84;5026407;28;20041;-42
2023/09/29 05:11:27;;;;;;;11.95;6.28;;;;;;;15.29;75.59;100265.56;5010174;28;20044;-42
2023/09/29 05:13:54;;;;;;;16.27;5.93;;;;;;;15.36;75.50;100271.41;5035540;28;20100;-43
2023/09/29 05:16:21;;;;;;;13.90;6.20;;;;;;;15.53;75.18;100268.91;5006262;28;20054;-43
2023/09/29 05:18:48;;;;;;;13.45;6.35;;;;;;;15.71;74.23;100278.53;5009880;28;20137;-41
2023/09/29 05:21:14;;;;;;;15.00;5.82;;;;;;;15.85;73.84;100276.16;5011524;28;20144;-42
2023/09/29 05:23:42;;;;;;;11.18;5.82;;;;;;;15.93;73.29;100273.16;5009536;28;20048;-42
2023/09/29 05:26:09;;;;;;;14.15;6.38;;;;;;;15.83;72.69;100249.13;5006670;28;20038;-43
2023/09/29 05:28:37;;;;;;;13.50;6.68;;;;;;;16.04;72.43;100261.25;5002511;28;20169;-46
2023/09/29 05:31:04;;;;;;;11.57;5.80;;;;;;;16.28;71.81;100263.59;5004598;28;20755;-44
2023/09/29 05:33:31;;;;;;;12.50;5.32;;;;;;;16.53;70.72;100264.97;4994932;28;20042;-42
2023/09/29 05:35:58;;;;;;;10.15;5.40;;;;;;;16.86;70.00;100265.06;4963197;28;20143;-44
2023/09/29 05:38:25;;;;;;;9.90;5.78;;;;;;;17.24;68.30;100236.81;4974078;28;20061;-41
2023/09/29 05:40:52;;;;;;;9.55;5.20;;;;;;;17.77;66.36;100262.03;4990001;28;20038;-41
2023/09/29 05:43:18;;;;;;;12.45;5.75;;;;;;;18.27;65.16;100261.84;5000622;28;20038;-45
2023/09/29 05:45:45;;;;;;;13.68;6.10;;;;;;;18.77;63.65;100263.38;4992077;28;20063;-42
2023/09/29 05:48:11;;;;;;;7.82;4.82;;;;;;;19.18;62.18;100250.38;5008602;28;20052;-44
2023/09/29 05:50:37;;;;;;;13.80;6.03;;;;;;;19.70;60.34;100266.50;5008154;28;20034;-43
2023/09/29 05:53:04;;;;;;;13.38;6.03;;;;;;;20.48;59.05;100275.56;5023170;28;20048;-43
2023/09/29 05:55:31;;;;;;;12.48;6.65;;;;;;;21.34;57.22;100274.16;4989754;28;20518;-42
2023/09/29 05:57:57;;;;;;;14.32;5.53;;;;;;;21.93;55.17;100277.84;4989445;28;20472;-42
2023/09/29 06:00:25;;;;;;;12.85;5.72;;;;;;;22.46;53.18;100273.97;4994845;28;20510;-43
2023/09/29 06:02:52;;;;;;;13.43;5.70;;;;;;;22.78;52.14;100274.25;5008217;28;20046;-43
2023/09/29 06:05:19;;;;;;;13.63;6.00;;;;;;;23.44;50.54;100270.91;5006272;28;20057;-43
2023/09/29 06:07:46;;;;;;;16.02;6.88;;;;;;;24.07;49.25;100277.41;5010841;28;20540;-44
2023/09/29 06:10:12;;;;;;;14.88;7.13;;;;;;;24.64;47.83;100279.78;4992171;28;20420;-42
2023/09/29 06:12:38;;;;;;;12.13;7.03;;;;;;;25.25;46.29;100279.94;4991825;28;20156;-42
2023/09/29 06:15:05;;;;;;;11.13;6.63;;;;;;;25.75;45.36;100278.22;5010125;28;20581;-43
2023/09/29 06:17:32;;;;;;;17.40;6.72;;;;;;;26.17;43.81;100256.75;5002345;28;20528;-47
2023/09/29 06:19:58;;;;;;;22.35;5.65;;;;;;;26.70;42.93;100266.06;5004100;28;20038;-45
2023/09/29 06:22:25;;;;;;;17.40;6.60;;;;;;;27.18;41.65;100268.69;4998810;28;20520;-45
2023/09/29 06:24:52;;;;;;;13.40;6.57;;;;;;;27.39;40.82;100268.47;5001978;28;20042;-44
2023/09/29 06:27:18;;;;;;;11.68;6.25;;;;;;;27.77;39.86;100243.47;4993066;28;20049;-43
2023/09/29 06:29:50;;;;;;;14.70;6.50;;;;;;;28.31;39.09;100265.81;4997244;28;20424;-42
2023/09/29 06:32:17;;;;;;;15.95;6.28;;;;;;;28.63;38.37;100269.59;4996981;28;20085;-45
2023/09/29 06:34:43;;;;;;;11.88;6.50;;;;;;;28.73;37.35;100268.75;4989570;28;20591;-45
2023/09/29 06:37:09;;;;;;;14.13;6.20;;;;;;;28.83;36.95;100270.34;5014004;28;20134;-42
2023/09/29 06:39:37;;;;;;;11.27;7.07;;;;;;;28.67;36.61;100239.88;5001152;28;20124;-41
2023/09/29 06:42:04;;;;;;;14.80;6.35;;;;;;;28.67;36.77;100259.47;4998144;28;20042;-41
2023/09/29 06:44:30;;;;;;;16.45;6.85;;;;;;;28.53;37.15;100252.78;5001396;28;20037;-40
2023/09/29 06:46:56;;;;;;;12.57;6.60;;;;;;;28.36;37.30;100274.22;5004950;28;20508;-41
2023/09/29 06:49:22;;;;;;;15.90;6.45;;;;;;;28.48;37.17;100257.78;5018036;28;20211;-41
2023/09/29 06:51:48;;;;;;;12.93;6.90;;;;;;;28.74;36.93;100257.00;5019924;28;20088;-42
2023/09/29 06:54:15;;;;;;;11.90;6.82;;;;;;;28.72;36.61;100251.84;5003533;28;20053;-47
2023/09/29 06:56:41;;;;;;;16.33;6.75;;;;;;;29.22;35.96;100252.00;4986502;28;20045;-51
2023/09/29 06:59:11;;;;;;;12.13;6.75;;;;;;;29.85;35.22;100254.34;5003554;28;20441;-45
2023/09/29 07:01:37;;;;;;;15.52;6.90;;;;;;;30.43;34.70;100243.59;4999074;28;20046;-47
2023/09/29 07:04:04;;;;;;;14.57;7.20;;;;;;;30.78;33.68;100247.81;5002885;28;20045;-42
2023/09/29 07:06:30;;;;;;;17.63;7.00;;;;;;;30.47;33.64;100254.88;5004131;28;20069;-45
2023/09/29 07:08:56;;;;;;;15.10;7.78;;;;;;;30.47;33.58;100254.88;5003249;28;20599;-45
2023/09/29 07:11:22;;;;;;;10.43;6.68;;;;;;;30.29;33.37;100250.47;5003990;28;20044;-47
2023/09/29 07:13:48;;;;;;;14.35;7.22;;;;;;;30.26;33.37;100253.47;5004451;28;20149;-43
2023/09/29 07:16:17;;;;;;;13.13;6.85;;;;;;;29.85;33.92;100243.63;4999561;28;20060;-43
2023/09/29 07:18:43;;;;;;;16.70;8.35;;;;;;;29.81;34.03;100256.53;5001579;28;20473;-42
2023/09/29 07:21:09;;;;;;;20.58;8.63;;;;;;;29.69;34.56;100252.44;5002744;28;20096;-44
2023/09/29 07:23:35;;;;;;;19.55;8.35;;;;;;;29.73;34.25;100231.53;4976927;28;20046;-43
2023/09/29 07:26:01;;;;;;;18.58;8.77;;;;;;;29.82;33.99;100255.53;5018770;28;20095;-43
2023/09/29 07:28:27;;;;;;;13.90;7.55;;;;;;;29.64;34.47;100257.44;4974043;28;20061;-44
2023/09/29 07:30:53;;;;;;;18.00;8.20;;;;;;;30.24;34.14;100257.34;5002906;28;20085;-45
2023/09/29 07:33:20;;;;;;;14.90;6.88;;;;;;;30.35;33.83;100254.34;5001927;28;20152;-43
2023/09/29 07:35:46;;;;;;;16.58;6.40;;;;;;;30.10;33.64;100248.06;5001879;28;20052;-42
2023/09/29 07:38:13;;;;;;;14.57;5.88;;;;;;;30.34;33.38;100230.34;4999239;28;20057;-42
2023/09/29 07:40:39;;;;;;;16.42;6.78;;;;;;;30.96;32.77;100251.19;5002407;28;20066;-46
2023/09/29 07:43:05;;;;;;;13.38;6.03;;;;;;;31.56;31.82;100246.19;5001061;28;20488;-42
2023/09/29 07:45:32;;;;;;;10.25;5.95;;;;;;;31.71;31.32;100254.41;4993310;28;20045;-42
2023/09/29 07:47:58;;;;;;;11.25;5.97;;;;;;;31.25;31.71;100239.91;4995219;28;20776;-43
2023/09/29 07:50:24;;;;;;;8.45;5.07;;;;;;;31.17;31.77;100247.16;5015422;28;20176;-41
2023/09/29 07:52:50;;;;;;;14.38;5.45;;;;;;;30.90;32.25;100248.31;5002567;28;20796;-44
2023/09/29 07:55:16;;;;;;;12.70;5.40;;;;;;;31.00;32.02;100230.19;5010181;28;20045;-43
2023/09/29 07:57:42;;;;;;;14.75;5.32;;;;;;;30.83;32.35;100250.03;5002599;28;20461;-44
2023/09/29 08:00:12;;;;;;;10.57;5.55;;;;;;;30.93;32.47;100245.31;4998936;28;20712;-43
2023/09/29 08:02:39;;;;;;;11.65;5.15;;;;;;;30.43;32.93;100250.81;4997819;28;20070;-45
2023/09/29 08:05:09;;;;;;;11.40;5.57;;;;;;;30.03;34.03;100238.19;4999253;28;20082;-43
2023/09/29 08:07:35;;;;;;;15.07;6.32;;;;;;;30.60;33.36;100245.34;5000003;28;20133;-43
2023/09/29 08:10:00;;;;;;;11.32;6.50;;;;;;;30.62;32.83;100243.31;4992051;28;20642;-42
2023/09/29 08:12:26;;;;;;;12.93;5.82;;;;;;;30.67;33.14;100235.56;4982507;28;20042;-44
2023/09/29 08:14:53;;;;;;;12.68;5.25;;;;;;;30.71;33.13;100234.25;4988176;28;20069;-44
2023/09/29 08:17:19;;;;;;;12.93;5.80;;;;;;;30.62;32.90;100200.34;5000109;28;20663;-45
2023/09/29 08:19:45;;;;;;;13.15;5.07;;;;;;;31.71;31.62;100243.66;5001864;28;20034;-44
2023/09/29 08:22:11;;;;;;;10.02;5.22;;;;;;;31.52;32.25;100234.09;4997651;28;20045;-45
2023/09/29 08:24:38;;;;;;;12.63;5.88;;;;;;;31.64;31.97;100217.63;4996365;28;20045;-46
2023/09/29 08:27:04;;;;;;;8.47;5.30;;;;;;;32.47;31.40;100247.41;5014758;28;20045;-44
2023/09/29 08:29:30;;;;;;;9.15;5.75;;;;;;;33.81;29.88;100245.59;4990149;28;20048;-46
2023/09/29 08:31:58;;;;;;;14.95;6.28;;;;;;;34.42;28.55;100239.66;4981321;28;20065;-44
2023/09/29 08:34:24;;;;;;;9.77;5.80;;;;;;;34.09;29.13;100233.03;5000594;28;20087;-49
2023/09/29 08:36:52;;;;;;;10.95;5.72;;;;;;;34.08;28.96;100225.13;5012210;28;20531;-47
2023/09/29 08:39:17;;;;;;;7.47;5.00;;;;;;;33.44;29.55;100220.41;5001059;28;20049;-44
2023/09/29 08:41:48;;;;;;;12.30;5.80;;;;;;;32.90;30.53;100229.72;4982805;28;20407;-45
2023/09/29 08:44:18;;;;;;;12.10;6.38;;;;;;;33.12;30.45;100226.13;4997382;28;20076;-48
2023/09/29 08:46:47;;;;;;;14.50;5.97;;;;;;;33.91;29.48;100225.38;4996353;28;20042;-42
2023/09/29 08:49:16;;;;;;;10.30;5.20;;;;;;;33.85;29.50;100201.88;5002211;28;20046;-49
2023/09/29 08:51:46;;;;;;;14.15;5.55;;;;;;;34.18;29.12;100218.38;5012422;28;20518;-46
2023/09/29 08:54:13;;;;;;;12.30;6.20;;;;;;;34.28;28.72;100210.84;5015125;28;20705;-48
2023/09/29 08:56:39;;;;;;;7.50;5.27;;;;;;;34.55;28.72;100213.78;5016770;28;20048;-43
2023/09/29 08:59:05;;;;;;;10.68;5.00;;;;;;;33.99;28.74;100214.47;4996659;28;20045;-47
2023/09/29 09:01:32;;;;;;;7.55;5.95;;;;;;;33.65;29.33;100206.16;5015444;28;20041;-47
2023/09/29 09:03:58;;;;;;;8.50;5.07;;;;;;;34.14;28.89;100205.47;4998057;28;20101;-46
2023/09/29 09:06:25;;;;;;;11.68;6.35;;;;;;;35.20;27.50;100211.63;4999025;28;20643;-45
2023/09/29 09:08:52;;;;;;;7.57;4.90;;;;;;;35.71;27.34;100200.44;4995853;28;20128;-44
2023/09/29 09:11:19;;;;;;;11.80;5.50;;;;;;;35.56;27.28;100202.44;4998355;28;20142;-46
2023/09/29 09:13:58;;;;;;;13.60;5.60;;;;;;;34.58;27.99;100202.59;5003683;28;20042;-43
2023/09/29 09:16:29;;;;;;;13.20;5.65;;;;;;;33.71;28.75;100194.63;4994478;28;20062;-43
2023/09/29 09:18:55;;;;;;;5.38;4.55;;;;;;;34.13;28.14;100199.22;4996547;28;20077;-44
2023/09/29 09:21:42;;;;;;;7.15;4.82;;;;;;;33.55;29.22;100198.34;5000529;28;20137;-46
2023/09/29 09:24:21;;;;;;;9.32;5.43;;;;;;;33.50;29.32;100195.38;5001389;28;20053;-44
2023/09/29 09:26:47;;;;;;;9.98;5.45;;;;;;;33.57;29.12;100196.31;5001021;28;20073;-46
2023/09/29 09:29:16;;;;;;;8.45;5.00;;;;;;;33.66;29.65;100197.03;4999816;28;20046;-45
2023/09/29 09:31:51;;;;;;;7.68;5.18;;;;;;;33.63;29.14;100195.56;4998837;28;20037;-47
2023/09/29 09:34:17;;;;;;;9.73;5.50;;;;;;;32.74;30.24;100184.94;4990928;28;20041;-43
2023/09/29 09:36:52;;;;;;;9.73;5.07;;;;;;;33.13;30.07;100190.91;4981597;28;20076;-44
2023/09/29 09:39:22;;;;;;;12.25;5.07;;;;;;;34.19;28.64;100187.69;4987723;28;20038;-45
2023/09/29 09:41:53;;;;;;;9.85;4.80;;;;;;;34.00;28.91;100191.84;4991434;28;20695;-45
2023/09/29 09:44:23;;;;;;;8.40;5.05;;;;;;;34.24;28.67;100179.84;4992722;28;20068;-45
2023/09/29 09:47:01;;;;;;;11.02;5.18;;;;;;;33.96;28.61;100171.69;4998537;28;20042;-42
2023/09/29 09:49:36;;;;;;;10.90;5.70;;;;;;;34.19;28.84;100173.38;5000791;28;20045;-43
2023/09/29 09:52:15;;;;;;;9.90;5.32;;;;;;;34.50;28.32;100167.63;5000097;28;20049;-42
2023/09/29 09:55:11;;;;;;;10.52;5.40;;;;;;;35.10;27.42;100169.75;5000902;28;20037;-44
2023/09/29 09:57:41;;;;;;;7.57;5.18;;;;;;;36.33;26.45;100175.81;4999548;28;20060;-40
2023/09/29 10:00:10;;;;;;;8.93;5.03;;;;;;;35.91;26.25;100170.72;5013994;28;20056;-45
2023/09/29 10:02:41;;;;;;;11.50;5.38;;;;;;;35.77;26.17;100158.22;5001948;28;20038;-43
2023/09/29 10:05:16;;;;;;;10.93;5.00;;;;;;;35.71;26.45;100164.44;5001114;28;20093;-43
2023/09/29 10:08:05;;;;;;;11.00;5.07;;;;;;;37.07;25.32;100163.88;5007392;28;20045;-50
2023/09/29 10:10:35;;;;;;;8.93;5.57;;;;;;;38.44;23.98;100156.94;5004650;28;20107;-43
2023/09/29 10:13:03;;;;;;;12.40;5.00;;;;;;;38.20;23.40;100110.75;5003519;28;20432;-48
2023/09/29 10:15:29;;;;;;;9.55;5.43;;;;;;;38.09;23.86;100153.88;5003346;28;20054;-46
2023/09/29 10:18:00;;;;;;;7.57;4.93;;;;;;;37.43;24.82;100153.34;5001870;28;20127;-43
2023/09/29 10:20:29;;;;;;;11.57;5.40;;;;;;;37.12;24.48;100145.97;4998896;28;20051;-45
2023/09/29 10:23:08;;;;;;;10.63;5.45;;;;;;;37.10;24.38;100131.81;5020187;28;20531;-45
2023/09/29 10:25:38;;;;;;;9.07;5.03;;;;;;;37.83;24.24;100137.75;5022843;28;20132;-43
2023/09/29 10:28:08;;;;;;;16.88;5.30;;;;;;;39.19;23.11;100138.66;5007667;28;20080;-44
2023/09/29 10:30:35;;;;;;;7.97;4.57;;;;;;;39.86;22.09;100144.09;5006338;28;20521;-43
2023/09/29 10:33:11;;;;;;;10.90;5.43;;;;;;;39.49;22.26;100143.34;5006361;28;20050;-46
2023/09/29 10:35:45;;;;;;;14.05;5.40;;;;;;;39.81;21.82;100142.06;5005902;28;20044;-44
2023/09/29 10:38:32;;;;;;;15.15;5.40;;;;;;;39.14;22.20;100134.97;5005487;28;20084;-46
2023/09/29 10:40:58;;;;;;;16.15;5.32;;;;;;;37.80;23.03;100132.72;5002299;28;20199;-44
2023/09/29 10:43:24;;;;;;;8.23;5.45;;;;;;;37.31;23.55;100130.69;5004032;28;20042;-43
2023/09/29 10:45:51;;;;;;;10.15;5.15;;;;;;;37.70;23.40;100121.53;5007366;28;20042;-42
2023/09/29 10:48:19;;;;;;;8.50;4.78;;;;;;;37.73;23.09;100126.53;5004689;28;20041;-45
2023/09/29 10:50:49;;;;;;;12.82;4.97;;;;;;;37.84;23.12;100112.25;5000375;28;20056;-46
2023/09/29 10:53:17;;;;;;;7.40;4.85;;;;;;;37.96;22.98;100112.38;5003089;28;20156;-44
2023/09/29 10:55:54;;;;;;;7.68;4.45;;;;;;;37.44;22.90;100106.19;5007727;28;20100;-45
2023/09/29 10:58:21;;;;;;;5.55;4.43;;;;;;;36.69;23.60;100071.63;4987095;28;20045;-46
2023/09/29 11:00:48;;;;;;;8.57;4.93;;;;;;;37.25;23.44;100110.69;5005252;28;20046;-49
2023/09/29 11:03:16;;;;;;;8.73;4.57;;;;;;;37.54;23.13;100095.72;5006000;28;20065;-46
2023/09/29 11:05:51;;;;;;;12.40;4.80;;;;;;;37.23;23.45;100101.91;4989006;28;20133;-42
2023/09/29 11:08:19;;;;;;;9.30;5.18;;;;;;;37.42;23.02;100104.75;5001882;28;20565;-45
2023/09/29 11:11:10;;;;;;;10.13;4.70;;;;;;;36.77;24.11;100095.78;5004216;28;20097;-50
2023/09/29 11:13:38;;;;;;;11.05;4.88;;;;;;;36.98;23.62;100086.53;5011403;28;20646;-46
2023/09/29 11:16:16;;;;;;;11.20;4.57;;;;;;;37.43;23.21;100079.25;5030180;28;20547;-45
2023/09/29 11:18:45;;;;;;;10.40;4.78;;;;;;;37.08;23.27;100082.38;5003460;28;20103;-45
2023/09/29 11:21:12;;;;;;;6.80;4.82;;;;;;;36.71;23.86;100074.94;5004147;28;20045;-48
2023/09/29 11:23:48;;;;;;;6.78;4.13;;;;;;;35.56;24.83;100075.28;5003002;28;20045;-45
2023/09/29 11:26:15;;;;;;;9.88;4.03;;;;;;;34.71;25.22;100083.84;4999727;28;20048;-46